Main page
METAR-TAF:

METAR-TAF

Airports :

Dubai International Airport

Dubai, United Arab Emirates

latitude: 25-15-10N, longitude: 055-21-52E, elevation: 8 m

Current weather observation

The report was made 22 minutes ago, at 04:00 UTC
Wind 5 kt from the East, varying between East/Northeast and East/Southeast
Temperature 29°C
Humidity 66%
Pressure 1014 hPa
Visibility: 8000 m

METAR: OMDB 170400Z 09005KT 060V120 8000 NSC 29/22 Q1014 NOSIG

Time: 08:22 (04:22 UTC)

Forecast

The report was made 5 hours and 21 minutes ago, at 23:01 UTC
Forecast valid from 17 at 00 UTC to 18 at 06 UTC
Wind 5 kt from the Southeast
Visibility: 8000 m
Becoming
from 17 at 07 UTC to 17 at 09 UTC
Wind 15 kt from the North/Northwest
Becoming
from 17 at 15 UTC to 17 at 17 UTC
Wind 5 kt from the East

TAF: OMDB 162301Z 1700/1806 14005KT 8000 NSC BECMG 1707/1709 33015KT BECMG 1715/1717 08005KT

Weather observations and forecasts of more than 4000 airports (METAR and TAF reports).

The available stations are represented by yellow and red dots on the map.

Hover mouse over dot to see the name of the station.

Then click to see weather observations and forecasts.

To change the map : click on the green buttons with a black cross to zoom in, on the green button with a dash to zoom out, or on the green arrows for adjacent maps.


METAR-TAF: